createdAt,value
2022-08-12T00:00:07.002Z,21.63
2022-08-12T00:02:54.421Z,21.66
2022-08-12T00:05:57.091Z,21.86
2022-08-12T00:08:48.579Z,21.55
2022-08-12T00:11:34.166Z,21.51
2022-08-12T00:14:19.766Z,21.82
2022-08-12T00:17:06.544Z,21.78
2022-08-12T00:19:51.618Z,21.58
2022-08-12T00:22:38.303Z,21.44
2022-08-12T00:26:05.507Z,21.32
2022-08-12T00:28:29.357Z,21.34
2022-08-12T00:31:14.550Z,21.52
2022-08-12T00:33:59.934Z,21.45
2022-08-12T00:36:46.505Z,21.44
2022-08-12T00:39:35.561Z,21.62
2022-08-12T00:42:12.270Z,21.50
2022-08-12T00:44:43.539Z,21.48
2022-08-12T00:47:25.024Z,21.58
2022-08-12T00:49:55.119Z,21.36
2022-08-12T00:52:22.883Z,21.35
2022-08-12T00:54:59.487Z,21.47
2022-08-12T00:57:30.164Z,21.43
2022-08-12T01:00:04.793Z,21.29
2022-08-12T01:02:37.554Z,21.36
2022-08-12T01:05:37.644Z,21.57
2022-08-12T01:08:24.706Z,21.36
2022-08-12T01:11:13.032Z,21.50
2022-08-12T01:13:44.463Z,21.32
2022-08-12T01:16:12.047Z,21.29
2022-08-12T01:21:12.963Z,20.85
2022-08-12T01:23:48.809Z,21.25
2022-08-12T01:26:21.384Z,21.39
2022-08-12T01:28:50.413Z,21.18
2022-08-12T01:31:18.781Z,21.35
2022-08-12T01:34:03.367Z,21.48
2022-08-12T01:36:57.803Z,21.51
2022-08-12T01:39:38.752Z,21.05
2022-08-12T01:42:28.254Z,20.94
2022-08-12T01:44:56.465Z,21.04
2022-08-12T01:47:33.119Z,21.03
2022-08-12T01:50:26.467Z,20.76
2022-08-12T01:53:15.859Z,21.28
2022-08-12T01:55:46.353Z,21.47
2022-08-12T01:58:18.918Z,21.06
2022-08-12T02:00:58.522Z,21.06
2022-08-12T02:03:58.883Z,21.14
2022-08-12T02:07:15.055Z,20.81
2022-08-12T02:10:49.155Z,20.71
2022-08-12T02:13:48.983Z,20.75
2022-08-12T02:16:22.739Z,20.80
2022-08-12T02:19:23.087Z,20.89
2022-08-12T02:22:14.757Z,20.74
2022-08-12T02:24:43.738Z,20.69
2022-08-12T02:27:13.205Z,20.75
2022-08-12T02:29:41.056Z,20.94
2022-08-12T02:32:08.719Z,20.64
2022-08-12T02:34:35.677Z,20.34
2022-08-12T02:37:03.984Z,20.56
2022-08-12T02:39:34.048Z,20.58
2022-08-12T02:42:03.727Z,20.44
2022-08-12T02:44:35.652Z,20.27
2022-08-12T02:47:06.362Z,20.33
2022-08-12T02:49:39.879Z,20.52
2022-08-12T02:52:07.993Z,20.65
2022-08-12T02:54:36.146Z,20.56
2022-08-12T02:57:03.057Z,20.30
2022-08-12T02:59:30.713Z,20.30
2022-08-12T03:02:03.531Z,20.44
2022-08-12T03:04:43.671Z,20.12
2022-08-12T03:07:49.363Z,20.10
2022-08-12T03:10:20.704Z,20.39
2022-08-12T03:13:06.975Z,20.28
2022-08-12T03:15:35.564Z,19.88
2022-08-12T03:18:24.668Z,19.56
2022-08-12T03:20:54.709Z,19.59
2022-08-12T03:23:29.646Z,19.79
2022-08-12T03:25:59.311Z,19.72
2022-08-12T03:28:47.198Z,19.64
2022-08-12T03:31:13.866Z,19.87
2022-08-12T03:33:43.801Z,19.58
2022-08-12T03:36:21.613Z,19.73
2022-08-12T03:39:10.847Z,19.69
2022-08-12T03:41:44.891Z,19.61
2022-08-12T03:44:55.854Z,19.73
2022-08-12T03:47:49.655Z,19.58
2022-08-12T03:50:35.918Z,19.65
2022-08-12T03:53:24.611Z,19.82
2022-08-12T03:56:10.441Z,19.90
2022-08-12T03:58:56.717Z,20.00
2022-08-12T04:01:23.615Z,19.83
2022-08-12T04:03:52.985Z,19.87
2022-08-12T04:06:35.048Z,19.92
2022-08-12T04:09:16.208Z,20.00
2022-08-12T04:12:04.252Z,19.68
2022-08-12T04:14:32.511Z,19.85
2022-08-12T04:16:59.845Z,19.80
2022-08-12T04:19:26.722Z,19.83
2022-08-12T04:22:01.919Z,19.80
2022-08-12T04:24:36.950Z,19.87
2022-08-12T04:27:09.781Z,20.03
2022-08-12T04:30:29.190Z,20.31
2022-08-12T04:32:25.833Z,20.41
2022-08-12T04:34:53.336Z,20.74
2022-08-12T04:37:20.226Z,20.73
2022-08-12T04:39:48.093Z,20.87
2022-08-12T04:42:14.869Z,21.22
2022-08-12T04:44:42.387Z,21.07
2022-08-12T04:47:14.278Z,20.73
2022-08-12T04:49:43.229Z,21.05
2022-08-12T04:52:10.039Z,21.32
2022-08-12T04:54:37.701Z,21.00
2022-08-12T04:57:05.753Z,20.77
2022-08-12T04:59:47.241Z,20.97
2022-08-12T05:02:22.882Z,20.81
2022-08-12T05:04:51.935Z,20.76
2022-08-12T05:07:20.046Z,20.95
2022-08-12T05:09:59.457Z,21.05
2022-08-12T05:12:46.310Z,21.11
2022-08-12T05:15:19.894Z,21.45
2022-08-12T05:17:56.272Z,21.42
2022-08-12T05:20:26.952Z,21.67
2022-08-12T05:23:12.721Z,22.10
2022-08-12T05:25:43.057Z,21.96
2022-08-12T05:28:10.950Z,22.36
2022-08-12T05:30:37.607Z,22.56
2022-08-12T05:33:05.891Z,22.31
2022-08-12T05:35:39.810Z,22.42
2022-08-12T05:38:26.175Z,22.38
2022-08-12T05:40:52.918Z,22.39
2022-08-12T05:43:20.205Z,22.83
2022-08-12T05:45:47.634Z,22.82
2022-08-12T05:48:14.674Z,23.38
2022-08-12T05:50:42.088Z,23.35
2022-08-12T05:53:08.950Z,23.51
2022-08-12T05:55:37.088Z,23.38
2022-08-12T05:58:04.887Z,23.34
2022-08-12T06:00:32.197Z,23.42
2022-08-12T06:03:02.166Z,23.29
2022-08-12T06:05:54.782Z,23.90
2022-08-12T06:08:22.460Z,24.17
2022-08-12T06:10:51.620Z,24.14
2022-08-12T06:13:27.883Z,23.90
2022-08-12T06:15:56.126Z,23.86
2022-08-12T06:18:25.499Z,24.57
2022-08-12T06:21:00.237Z,23.84
2022-08-12T06:23:28.945Z,23.96
2022-08-12T06:25:56.232Z,24.20
2022-08-12T06:28:23.034Z,24.44
2022-08-12T06:31:14.931Z,24.94
2022-08-12T06:33:59.502Z,24.90
2022-08-12T06:36:29.447Z,25.20
2022-08-12T06:38:59.200Z,25.14
2022-08-12T06:42:02.611Z,24.84
2022-08-12T06:44:32.628Z,25.17
2022-08-12T06:46:59.590Z,25.52
2022-08-12T06:49:30.059Z,25.93
2022-08-12T06:51:57.333Z,24.77
2022-08-12T06:54:31.002Z,25.43
2022-08-12T06:57:04.028Z,25.24
2022-08-12T06:59:32.302Z,24.67
2022-08-12T07:01:59.275Z,25.06
2022-08-12T07:04:36.174Z,24.65
2022-08-12T07:07:05.548Z,23.85
2022-08-12T07:10:01.168Z,23.84
2022-08-12T07:12:19.970Z,24.17
2022-08-12T07:14:51.522Z,24.32
2022-08-12T07:17:18.700Z,24.23
2022-08-12T07:19:46.843Z,23.88
2022-08-12T07:22:15.475Z,24.81
2022-08-12T07:24:42.343Z,25.35
2022-08-12T07:27:09.157Z,25.01
2022-08-12T07:29:57.876Z,24.66
2022-08-12T07:32:25.694Z,25.55
2022-08-12T07:35:04.025Z,25.17
2022-08-12T07:37:31.367Z,25.09
2022-08-12T07:40:00.547Z,25.02
2022-08-12T07:42:28.445Z,25.18
2022-08-12T07:44:56.467Z,25.22
2022-08-12T07:47:24.078Z,25.88
2022-08-12T07:50:04.345Z,25.87
2022-08-12T07:52:38.363Z,26.04
2022-08-12T07:55:06.197Z,27.22
2022-08-12T07:57:33.506Z,27.76
2022-08-12T08:00:05.822Z,27.04
2022-08-12T08:02:36.954Z,27.80
2022-08-12T08:05:04.651Z,26.77
2022-08-12T08:07:31.470Z,28.07
2022-08-12T08:10:00.930Z,27.38
2022-08-12T08:12:47.929Z,29.07
2022-08-12T08:15:15.697Z,26.98
2022-08-12T08:17:57.777Z,29.29
2022-08-12T08:20:28.796Z,28.36
2022-08-12T08:23:00.606Z,27.74
2022-08-12T08:25:36.457Z,26.62
2022-08-12T08:28:19.056Z,27.35
2022-08-12T08:30:47.739Z,27.87
2022-08-12T08:33:23.544Z,29.33
2022-08-12T08:36:05.161Z,28.20
2022-08-12T08:38:35.092Z,28.17
2022-08-12T08:42:18.913Z,28.51
2022-08-12T08:44:11.339Z,30.06
2022-08-12T08:46:44.423Z,30.62
2022-08-12T08:49:12.123Z,29.86
2022-08-12T08:51:39.831Z,30.29
2022-08-12T08:54:08.514Z,32.10
2022-08-12T08:56:53.738Z,31.01
2022-08-12T08:59:21.935Z,30.08
2022-08-12T09:01:48.730Z,31.32
2022-08-12T09:05:07.916Z,29.64
2022-08-12T09:07:17.713Z,31.26
2022-08-12T09:10:03.539Z,31.38
2022-08-12T09:12:54.863Z,31.70
2022-08-12T09:18:11.885Z,32.43
2022-08-12T09:20:42.372Z,30.36
2022-08-12T09:25:58.287Z,30.29
2022-08-12T09:28:31.159Z,30.75
2022-08-12T09:31:00.290Z,31.25
2022-08-12T09:34:25.168Z,31.93
2022-08-12T09:36:31.046Z,31.49
2022-08-12T09:40:06.529Z,33.26
2022-08-12T09:42:42.738Z,31.55
2022-08-12T09:45:23.189Z,32.14
2022-08-12T09:47:59.125Z,31.99
2022-08-12T09:50:26.424Z,33.43
2022-08-12T09:53:16.357Z,30.62
2022-08-12T09:56:01.206Z,30.66
2022-08-12T09:58:58.062Z,30.28
2022-08-12T10:01:24.972Z,31.29
2022-08-12T10:04:05.800Z,30.46
2022-08-12T10:06:36.543Z,29.75
2022-08-12T10:09:08.379Z,31.07
2022-08-12T10:12:09.856Z,30.23
2022-08-12T10:14:40.742Z,31.27
2022-08-12T10:17:22.682Z,31.37
2022-08-12T10:19:52.535Z,31.16
2022-08-12T10:22:39.119Z,30.57
2022-08-12T10:26:35.211Z,30.60
2022-08-12T10:28:32.902Z,31.34
2022-08-12T10:31:01.433Z,32.08
2022-08-12T10:33:30.940Z,32.17
2022-08-12T10:36:00.473Z,32.35
2022-08-12T10:38:34.013Z,32.22
2022-08-12T10:41:58.358Z,33.65
2022-08-12T10:44:17.297Z,31.96
2022-08-12T10:46:49.120Z,33.11
2022-08-12T10:50:04.610Z,32.02
2022-08-12T10:52:34.576Z,33.99
2022-08-12T10:54:55.511Z,34.02
2022-08-12T10:58:13.471Z,33.28
2022-08-12T11:00:32.078Z,32.38
2022-08-12T11:04:22.957Z,32.71
2022-08-12T11:07:06.727Z,33.97
2022-08-12T11:08:42.514Z,31.58
2022-08-12T11:11:16.985Z,32.88
2022-08-12T11:13:49.103Z,33.38
2022-08-12T11:16:19.559Z,30.09
2022-08-12T11:18:54.729Z,30.08
2022-08-12T11:21:22.241Z,32.23
2022-08-12T11:23:53.591Z,32.35
2022-08-12T11:26:21.594Z,30.14
2022-08-12T11:28:59.033Z,30.58
2022-08-12T11:31:56.392Z,30.18
2022-08-12T11:34:53.506Z,30.96
2022-08-12T11:37:07.269Z,29.74
2022-08-12T11:42:39.728Z,28.00
2022-08-12T11:45:13.010Z,27.41
2022-08-12T11:47:43.814Z,28.97
2022-08-12T11:50:19.121Z,30.19
2022-08-12T11:53:57.810Z,31.74
2022-08-12T11:55:46.792Z,31.32
2022-08-12T11:59:28.616Z,29.79
2022-08-12T12:03:47.124Z,30.71
2022-08-12T12:06:16.826Z,32.49
2022-08-12T12:08:50.447Z,32.22
2022-08-12T12:11:18.617Z,31.46
2022-08-12T12:14:08.617Z,30.88
2022-08-12T12:16:33.651Z,30.19
2022-08-12T12:19:11.510Z,29.95
2022-08-12T12:21:47.393Z,29.42
2022-08-12T12:24:21.276Z,28.29
2022-08-12T12:27:00.871Z,28.62
2022-08-12T12:30:18.438Z,28.28
2022-08-12T12:32:18.308Z,27.49
2022-08-12T12:35:18.407Z,27.83
2022-08-12T12:38:04.500Z,28.03
2022-08-12T12:40:19.327Z,28.24
2022-08-12T12:42:59.803Z,28.40
2022-08-12T12:45:33.250Z,28.39
2022-08-12T12:48:00.120Z,28.20
2022-08-12T12:50:45.085Z,28.04
2022-08-12T12:54:05.846Z,27.87
2022-08-12T12:56:05.838Z,27.59
2022-08-12T12:58:34.013Z,27.88
2022-08-12T13:01:04.618Z,28.09
2022-08-12T13:03:49.507Z,28.80
2022-08-12T13:06:16.326Z,28.97
2022-08-12T13:08:46.917Z,28.11
2022-08-12T13:11:14.627Z,29.13
2022-08-12T13:14:08.819Z,28.56
2022-08-12T13:16:29.294Z,28.89
2022-08-12T13:18:56.974Z,28.43
2022-08-12T13:21:33.664Z,27.46
2022-08-12T13:24:10.022Z,27.38
2022-08-12T13:26:40.043Z,26.74
2022-08-12T13:29:11.287Z,26.99
2022-08-12T13:32:17.568Z,26.05
2022-08-12T13:34:32.260Z,26.23
2022-08-12T13:37:04.672Z,26.17
2022-08-12T13:39:37.236Z,26.06
2022-08-12T13:42:07.050Z,25.42
2022-08-12T13:44:41.059Z,25.10
2022-08-12T13:47:18.403Z,24.70
2022-08-12T13:49:54.438Z,24.66
2022-08-12T13:52:23.468Z,24.68
2022-08-12T13:54:55.880Z,24.71
2022-08-12T13:57:25.574Z,24.52
2022-08-12T13:59:55.083Z,24.59
2022-08-12T14:02:24.289Z,24.78
2022-08-12T14:04:56.342Z,24.79
2022-08-12T14:07:25.987Z,24.66
2022-08-12T14:10:16.089Z,25.05
2022-08-12T14:12:54.452Z,24.75
2022-08-12T14:15:31.160Z,24.84
2022-08-12T14:18:07.938Z,25.35
2022-08-12T14:20:34.707Z,24.53
2022-08-12T14:24:02.051Z,24.35
2022-08-12T14:25:48.612Z,25.40
2022-08-12T14:28:19.802Z,25.05
2022-08-12T14:30:59.729Z,25.12
2022-08-12T14:33:48.817Z,24.91
2022-08-12T14:36:20.716Z,25.55
2022-08-12T14:38:50.020Z,24.91
2022-08-12T14:41:19.062Z,25.06
2022-08-12T14:44:04.994Z,25.00
2022-08-12T14:46:34.857Z,25.34
2022-08-12T14:50:00.626Z,26.21
2022-08-12T14:52:43.944Z,24.86
2022-08-12T14:57:23.979Z,22.22
2022-08-12T15:00:20.351Z,21.30
2022-08-12T15:02:47.322Z,20.30
2022-08-12T15:06:06.027Z,19.82
2022-08-12T15:08:04.964Z,19.27
2022-08-12T15:10:36.194Z,18.32
2022-08-12T15:13:07.409Z,17.98
2022-08-12T15:15:38.594Z,17.44
2022-08-12T15:18:21.453Z,16.98
2022-08-12T15:20:51.731Z,16.75
2022-08-12T15:23:21.432Z,16.68
2022-08-12T15:25:59.696Z,16.55
2022-08-12T15:28:32.429Z,16.77
2022-08-12T15:31:00.718Z,16.81
2022-08-12T15:33:44.994Z,17.01
2022-08-12T15:36:19.422Z,16.81
2022-08-12T15:39:01.524Z,17.01
2022-08-12T15:41:28.122Z,16.79
2022-08-12T15:44:36.597Z,16.59
2022-08-12T15:47:01.405Z,16.70
2022-08-12T15:49:28.070Z,16.89
2022-08-12T15:52:10.211Z,16.91
2022-08-12T15:54:54.003Z,16.92
2022-08-12T15:57:25.229Z,16.99
2022-08-12T16:00:07.597Z,17.21
2022-08-12T16:02:50.435Z,17.08
2022-08-12T16:06:12.798Z,17.18
2022-08-12T16:08:17.048Z,17.73
2022-08-12T16:10:45.450Z,17.78
2022-08-12T16:13:14.270Z,17.77
2022-08-12T16:15:51.133Z,17.88
2022-08-12T16:18:39.444Z,17.81
2022-08-12T16:21:09.094Z,18.79
2022-08-12T16:23:54.959Z,18.44
2022-08-12T16:26:27.540Z,17.64
2022-08-12T16:29:14.609Z,17.98
2022-08-12T16:31:42.516Z,17.99
2022-08-12T16:34:25.891Z,18.23
2022-08-12T16:37:07.266Z,17.99
2022-08-12T16:39:35.675Z,18.60
2022-08-12T16:42:28.326Z,18.57
2022-08-12T16:44:57.266Z,17.63
2022-08-12T16:47:27.270Z,17.56
2022-08-12T16:49:57.624Z,17.90
2022-08-12T16:52:25.383Z,18.90
2022-08-12T16:54:52.947Z,18.05
2022-08-12T16:57:34.808Z,17.98
2022-08-12T17:00:05.388Z,18.24
2022-08-12T17:02:34.303Z,18.61
2022-08-12T17:05:04.151Z,18.52
2022-08-12T17:07:36.910Z,18.14
2022-08-12T17:10:09.886Z,18.33
2022-08-12T17:12:39.214Z,18.60
2022-08-12T17:15:50.856Z,18.41
2022-08-12T17:18:39.466Z,17.78
2022-08-12T17:20:47.083Z,17.86
2022-08-12T17:23:17.303Z,17.78
2022-08-12T17:25:50.489Z,17.89
2022-08-12T17:28:18.463Z,17.87
2022-08-12T17:30:46.058Z,18.29
2022-08-12T17:33:27.666Z,18.03
2022-08-12T17:35:58.376Z,17.96
2022-08-12T17:38:25.168Z,18.62
2022-08-12T17:40:52.061Z,18.35
2022-08-12T17:43:54.879Z,18.64
2022-08-12T17:46:12.976Z,18.02
2022-08-12T17:48:55.477Z,18.18
2022-08-12T17:51:24.706Z,18.42
2022-08-12T17:54:10.271Z,18.53
2022-08-12T17:56:41.263Z,18.76
2022-08-12T17:59:12.740Z,18.52
2022-08-12T18:01:45.153Z,18.41
2022-08-12T18:04:22.857Z,19.02
2022-08-12T18:07:01.614Z,18.95
2022-08-12T18:09:32.066Z,18.92
2022-08-12T18:12:26.627Z,19.03
2022-08-12T18:15:00.384Z,18.95
2022-08-12T18:17:28.867Z,18.95
2022-08-12T18:20:05.050Z,19.38
2022-08-12T18:22:35.004Z,19.13
2022-08-12T18:25:06.497Z,18.57
2022-08-12T18:27:44.196Z,18.77
2022-08-12T18:30:20.716Z,18.98
2022-08-12T18:33:04.327Z,18.93
2022-08-12T18:35:47.978Z,19.07
2022-08-12T18:38:22.685Z,19.31
2022-08-12T18:41:11.516Z,19.26
2022-08-12T18:44:05.130Z,18.72
2022-08-12T18:47:09.577Z,18.13
2022-08-12T18:49:48.229Z,18.44
2022-08-12T18:52:16.583Z,17.86
2022-08-12T18:54:49.344Z,17.90
2022-08-12T18:58:07.436Z,17.61
2022-08-12T19:00:15.910Z,17.83
2022-08-12T19:02:44.770Z,17.94
2022-08-12T19:05:17.524Z,17.94
2022-08-12T19:08:00.028Z,17.62
2022-08-12T19:10:31.824Z,17.29
2022-08-12T19:13:23.434Z,17.30
2022-08-12T19:15:57.884Z,17.59
2022-08-12T19:18:30.087Z,17.66
2022-08-12T19:21:06.307Z,18.40
2022-08-12T19:23:35.074Z,17.78
2022-08-12T19:26:04.485Z,17.64
2022-08-12T19:28:36.180Z,17.48
2022-08-12T19:31:55.466Z,17.95
2022-08-12T19:37:27.528Z,17.43
2022-08-12T19:40:10.221Z,17.29
2022-08-12T19:42:57.516Z,17.20
2022-08-12T19:45:41.790Z,17.44
2022-08-12T19:48:17.262Z,17.19
2022-08-12T19:50:49.857Z,17.25
2022-08-12T19:53:18.753Z,17.17
2022-08-12T19:55:51.774Z,16.98
2022-08-12T19:58:19.694Z,17.18
2022-08-12T20:00:52.740Z,17.34
2022-08-12T20:03:38.275Z,17.12
2022-08-12T20:06:15.772Z,17.01
2022-08-12T20:08:49.193Z,16.98
2022-08-12T20:12:09.786Z,17.02
2022-08-12T20:14:18.922Z,17.21
2022-08-12T20:16:51.794Z,17.25
2022-08-12T20:19:23.405Z,17.27
2022-08-12T20:21:50.894Z,17.48
2022-08-12T20:24:19.282Z,17.42
2022-08-12T20:26:46.578Z,17.35
2022-08-12T20:29:14.913Z,17.37
2022-08-12T20:31:43.767Z,17.53
2022-08-12T20:34:12.445Z,17.69
2022-08-12T20:36:44.811Z,17.82
2022-08-12T20:39:17.866Z,17.68
2022-08-12T20:42:07.105Z,17.48
2022-08-12T20:44:40.513Z,17.58
2022-08-12T20:47:18.199Z,17.53
2022-08-12T20:49:54.977Z,17.61
2022-08-12T20:52:24.439Z,17.63
2022-08-12T20:54:52.284Z,17.59
2022-08-12T20:57:22.411Z,17.38
2022-08-12T20:59:51.934Z,17.32
2022-08-12T21:02:24.357Z,17.21
2022-08-12T21:05:19.559Z,17.18
2022-08-12T21:07:51.749Z,17.23
2022-08-12T21:10:20.962Z,17.32
2022-08-12T21:12:48.606Z,17.20
2022-08-12T21:15:17.118Z,17.11
2022-08-12T21:18:00.990Z,17.30
2022-08-12T21:20:36.234Z,17.24
2022-08-12T21:23:05.826Z,17.22
2022-08-12T21:25:44.350Z,17.15
2022-08-12T21:28:14.523Z,17.19
2022-08-12T21:31:11.105Z,17.16
2022-08-12T21:33:31.890Z,17.18
2022-08-12T21:36:02.529Z,17.36
2022-08-12T21:38:34.810Z,17.66
2022-08-12T21:41:06.983Z,17.49
2022-08-12T21:43:40.335Z,17.43
2022-08-12T21:46:14.950Z,17.44
2022-08-12T21:49:03.971Z,17.41
2022-08-12T21:51:49.097Z,17.45
2022-08-12T21:54:21.877Z,17.48
2022-08-12T21:56:50.327Z,17.42
2022-08-12T21:59:17.772Z,17.38
2022-08-12T22:01:48.943Z,17.09
2022-08-12T22:04:36.316Z,17.28
2022-08-12T22:07:06.862Z,17.29
2022-08-12T22:09:42.607Z,17.33
2022-08-12T22:12:28.137Z,17.37
2022-08-12T22:14:54.825Z,17.69
2022-08-12T22:17:21.462Z,17.23
2022-08-12T22:19:50.510Z,17.21
2022-08-12T22:22:17.200Z,17.11
2022-08-12T22:24:47.593Z,17.17
2022-08-12T22:27:32.354Z,17.55
2022-08-12T22:30:19.524Z,17.23
2022-08-12T22:32:51.497Z,17.24
2022-08-12T22:35:56.262Z,17.28
2022-08-12T22:38:23.985Z,17.31
2022-08-12T22:41:00.985Z,17.42
2022-08-12T22:44:00.872Z,17.41
2022-08-12T22:46:32.606Z,17.40
2022-08-12T22:48:59.302Z,17.27
2022-08-12T22:51:26.598Z,18.07
2022-08-12T22:53:55.533Z,17.78
2022-08-12T22:56:31.034Z,17.85
2022-08-12T22:59:02.707Z,17.52
2022-08-12T23:01:52.575Z,17.47
2022-08-12T23:04:27.700Z,17.28
2022-08-12T23:06:56.752Z,17.33
2022-08-12T23:09:28.064Z,17.19
2022-08-12T23:12:22.699Z,17.10
2022-08-12T23:14:51.946Z,17.07
2022-08-12T23:17:21.158Z,17.05
2022-08-12T23:20:05.635Z,17.06
2022-08-12T23:22:35.735Z,17.06
2022-08-12T23:25:03.962Z,17.23
2022-08-12T23:27:51.583Z,17.04
2022-08-12T23:30:31.937Z,17.71
2022-08-12T23:33:02.915Z,17.54
2022-08-12T23:35:53.475Z,17.41
2022-08-12T23:38:30.643Z,17.29
2022-08-12T23:41:05.615Z,17.68
2022-08-12T23:43:39.997Z,17.58
2022-08-12T23:46:10.175Z,17.75
2022-08-12T23:48:37.969Z,17.68
2022-08-12T23:51:21.762Z,17.48
2022-08-12T23:53:50.863Z,17.41
2022-08-12T23:56:17.750Z,17.42
2022-08-12T23:58:52.450Z,17.18
